createdAt,value
2022-07-28T00:01:30.186Z,19.50
2022-07-28T00:03:58.830Z,19.40
2022-07-28T00:06:27.443Z,19.30
2022-07-28T00:08:56.197Z,19.30
2022-07-28T00:11:25.155Z,19.20
2022-07-28T00:13:55.960Z,19.20
2022-07-28T00:16:25.304Z,19.10
2022-07-28T00:18:53.928Z,19.00
2022-07-28T00:21:22.630Z,19.00
2022-07-28T00:23:51.182Z,18.90
2022-07-28T00:26:19.721Z,18.80
2022-07-28T00:28:48.303Z,18.70
2022-07-28T00:31:18.514Z,18.60
2022-07-28T00:33:47.150Z,18.60
2022-07-28T00:36:15.727Z,18.60
2022-07-28T00:38:45.965Z,18.60
2022-07-28T00:41:19.823Z,18.70
2022-07-28T00:43:52.110Z,18.60
2022-07-28T00:46:24.352Z,18.70
2022-07-28T00:48:55.552Z,18.60
2022-07-28T00:51:27.966Z,18.60
2022-07-28T00:53:58.031Z,18.70
2022-07-28T00:56:26.772Z,18.60
2022-07-28T00:58:55.946Z,18.70
2022-07-28T01:01:26.973Z,18.70
2022-07-28T01:03:59.604Z,18.70
2022-07-28T01:06:56.667Z,18.70
2022-07-28T01:09:49.508Z,18.60
2022-07-28T01:12:38.985Z,18.70
2022-07-28T01:15:20.687Z,18.80
2022-07-28T01:18:06.137Z,18.70
2022-07-28T01:20:40.880Z,18.60
2022-07-28T01:23:59.830Z,18.50
2022-07-28T01:27:02.137Z,18.40
2022-07-28T01:29:56.253Z,18.40
2022-07-28T01:32:29.657Z,18.40
2022-07-28T01:35:08.333Z,18.20
2022-07-28T01:37:47.300Z,18.20
2022-07-28T01:40:23.942Z,18.20
2022-07-28T01:43:00.157Z,18.10
2022-07-28T01:45:31.839Z,18.00
2022-07-28T01:48:04.440Z,18.00
2022-07-28T01:50:35.778Z,17.90
2022-07-28T01:53:06.109Z,17.80
2022-07-28T01:55:36.460Z,17.70
2022-07-28T01:58:07.492Z,17.80
2022-07-28T02:00:38.276Z,17.80
2022-07-28T02:03:10.891Z,17.80
2022-07-28T02:05:44.092Z,17.70
2022-07-28T02:08:15.594Z,17.70
2022-07-28T02:11:05.929Z,17.70
2022-07-28T02:13:40.672Z,17.80
2022-07-28T02:16:12.177Z,17.90
2022-07-28T02:18:45.423Z,17.80
2022-07-28T02:21:16.127Z,17.80
2022-07-28T02:23:48.750Z,17.80
2022-07-28T02:26:23.283Z,17.70
2022-07-28T02:28:56.275Z,17.70
2022-07-28T02:31:30.782Z,17.70
2022-07-28T02:34:07.667Z,17.80
2022-07-28T02:36:42.123Z,17.70
2022-07-28T02:39:21.920Z,17.80
2022-07-28T02:42:00.290Z,17.70
2022-07-28T02:44:36.610Z,17.70
2022-07-28T02:47:10.648Z,17.70
2022-07-28T02:49:43.046Z,17.60
2022-07-28T02:52:14.273Z,17.60
2022-07-28T02:54:45.739Z,17.50
2022-07-28T02:57:16.659Z,17.40
2022-07-28T02:59:46.857Z,17.40
2022-07-28T03:02:16.263Z,17.30
2022-07-28T03:04:59.004Z,17.30
2022-07-28T03:07:29.454Z,17.30
2022-07-28T03:09:59.004Z,17.20
2022-07-28T03:12:28.326Z,17.10
2022-07-28T03:14:57.182Z,17.20
2022-07-28T03:17:25.769Z,17.10
2022-07-28T03:19:56.151Z,17.20
2022-07-28T03:22:25.096Z,17.20
2022-07-28T03:24:57.907Z,17.20
2022-07-28T03:27:31.298Z,17.20
2022-07-28T03:30:06.319Z,17.20
2022-07-28T03:32:38.489Z,17.20
2022-07-28T03:35:10.368Z,17.20
2022-07-28T03:37:51.119Z,17.20
2022-07-28T03:40:21.672Z,17.10
2022-07-28T03:42:51.995Z,17.10
2022-07-28T03:45:21.165Z,16.90
2022-07-28T03:47:54.693Z,16.90
2022-07-28T03:50:30.420Z,16.90
2022-07-28T03:53:02.896Z,16.70
2022-07-28T03:55:31.554Z,16.60
2022-07-28T03:58:00.937Z,16.70
2022-07-28T04:00:29.454Z,16.60
2022-07-28T04:02:58.419Z,16.60
2022-07-28T04:05:30.055Z,16.50
2022-07-28T04:07:58.770Z,16.40
2022-07-28T04:10:27.503Z,16.30
2022-07-28T04:12:58.974Z,16.30
2022-07-28T04:15:29.762Z,16.30
2022-07-28T04:17:58.934Z,16.30
2022-07-28T04:20:29.557Z,16.40
2022-07-28T04:22:58.495Z,16.50
2022-07-28T04:25:28.924Z,16.60
2022-07-28T04:27:57.821Z,16.60
2022-07-28T04:30:28.064Z,16.60
2022-07-28T04:32:57.296Z,16.60
2022-07-28T04:35:27.346Z,16.70
2022-07-28T04:37:58.668Z,16.80
2022-07-28T04:40:28.624Z,16.80
2022-07-28T04:42:57.584Z,16.90
2022-07-28T04:45:26.346Z,17.00
2022-07-28T04:47:54.908Z,17.00
2022-07-28T04:50:23.373Z,17.10
2022-07-28T04:52:51.856Z,17.10
2022-07-28T04:55:22.127Z,17.20
2022-07-28T04:57:50.631Z,17.20
2022-07-28T05:00:19.826Z,17.20
2022-07-28T05:02:51.609Z,17.30
2022-07-28T05:05:20.486Z,17.30
2022-07-28T05:07:49.198Z,17.30
2022-07-28T05:10:18.176Z,17.50
2022-07-28T05:12:49.417Z,17.60
2022-07-28T05:15:17.963Z,17.70
2022-07-28T05:17:46.542Z,17.80
2022-07-28T05:20:15.582Z,17.90
2022-07-28T05:22:46.449Z,18.00
2022-07-28T05:25:17.368Z,18.00
2022-07-28T05:27:49.334Z,18.10
2022-07-28T05:30:19.144Z,18.20
2022-07-28T05:32:49.166Z,18.40
2022-07-28T05:35:18.071Z,18.60
2022-07-28T05:37:46.598Z,18.70
2022-07-28T05:40:18.381Z,18.80
2022-07-28T05:42:48.634Z,18.80
2022-07-28T05:45:17.880Z,19.00
2022-07-28T05:47:49.752Z,19.10
2022-07-28T05:50:20.026Z,19.30
2022-07-28T05:52:50.275Z,19.50
2022-07-28T05:55:20.173Z,19.70
2022-07-28T05:57:50.941Z,19.90
2022-07-28T06:00:22.980Z,20.00
2022-07-28T06:02:52.602Z,20.10
2022-07-28T06:05:23.339Z,20.20
2022-07-28T06:07:52.799Z,20.50
2022-07-28T06:10:24.964Z,20.60
2022-07-28T06:12:57.918Z,20.90
2022-07-28T06:15:29.122Z,21.10
2022-07-28T06:17:57.714Z,21.40
2022-07-28T06:20:27.821Z,21.50
2022-07-28T06:22:57.438Z,21.50
2022-07-28T06:25:28.583Z,21.60
2022-07-28T06:28:01.190Z,21.70
2022-07-28T06:30:30.893Z,21.80
2022-07-28T06:33:00.153Z,21.90
2022-07-28T06:35:28.813Z,22.00
2022-07-28T06:37:57.284Z,22.20
2022-07-28T06:40:26.142Z,22.50
2022-07-28T06:42:55.032Z,22.80
2022-07-28T06:45:25.098Z,22.90
2022-07-28T06:47:55.169Z,23.10
2022-07-28T06:50:26.097Z,23.20
2022-07-28T06:52:56.542Z,23.40
2022-07-28T06:55:25.355Z,23.60
2022-07-28T06:57:54.446Z,23.80
2022-07-28T07:00:24.722Z,24.00
2022-07-28T07:02:53.430Z,24.20
2022-07-28T07:05:22.003Z,24.40
2022-07-28T07:07:50.880Z,24.50
2022-07-28T07:10:19.499Z,24.50
2022-07-28T07:12:48.386Z,24.50
2022-07-28T07:15:16.902Z,24.70
2022-07-28T07:17:47.570Z,24.90
2022-07-28T07:20:17.196Z,25.00
2022-07-28T07:22:48.240Z,25.30
2022-07-28T07:25:19.830Z,25.50
2022-07-28T07:27:48.804Z,25.70
2022-07-28T07:30:18.267Z,25.90
2022-07-28T07:32:48.232Z,26.10
2022-07-28T07:35:16.938Z,26.40
2022-07-28T07:37:45.425Z,26.60
2022-07-28T07:40:13.962Z,26.60
2022-07-28T07:42:42.544Z,26.80
2022-07-28T07:45:11.612Z,26.80
2022-07-28T07:47:41.022Z,26.90
2022-07-28T07:50:11.560Z,26.90
2022-07-28T07:52:40.123Z,26.90
2022-07-28T07:55:10.181Z,26.90
2022-07-28T07:57:38.703Z,27.00
2022-07-28T08:00:28.979Z,27.00
2022-07-28T08:02:58.205Z,26.80
2022-07-28T08:05:35.999Z,26.70
2022-07-28T08:08:06.467Z,26.70
2022-07-28T08:10:35.260Z,26.90
2022-07-28T08:13:05.130Z,26.90
2022-07-28T08:15:34.621Z,26.90
2022-07-28T08:18:03.614Z,27.10
2022-07-28T08:20:33.664Z,27.30
2022-07-28T08:23:02.398Z,27.30
2022-07-28T08:25:31.016Z,27.30
2022-07-28T08:27:59.710Z,27.40
2022-07-28T08:30:32.457Z,27.40
2022-07-28T08:33:03.052Z,27.40
2022-07-28T08:35:35.129Z,27.50
2022-07-28T08:38:05.776Z,27.50
2022-07-28T08:40:36.242Z,27.70
2022-07-28T08:43:16.392Z,27.80
2022-07-28T08:45:49.050Z,27.80
2022-07-28T08:48:21.048Z,27.80
2022-07-28T08:50:52.637Z,28.10
2022-07-28T08:53:22.272Z,28.20
2022-07-28T08:55:52.353Z,28.10
2022-07-28T08:58:21.144Z,28.10
2022-07-28T09:00:50.432Z,28.20
2022-07-28T09:03:19.206Z,28.20
2022-07-28T09:05:50.111Z,28.30
2022-07-28T09:08:20.686Z,28.30
2022-07-28T09:10:49.626Z,28.30
2022-07-28T09:13:19.516Z,28.40
2022-07-28T09:15:49.185Z,28.40
2022-07-28T09:18:20.642Z,28.70
2022-07-28T09:20:49.094Z,28.90
2022-07-28T09:23:42.792Z,29.00
2022-07-28T09:26:12.668Z,29.20
2022-07-28T09:28:56.026Z,29.20
2022-07-28T09:31:27.935Z,29.40
2022-07-28T09:34:02.045Z,29.50
2022-07-28T09:36:31.927Z,29.40
2022-07-28T09:39:01.793Z,29.30
2022-07-28T09:41:30.566Z,29.40
2022-07-28T09:43:59.078Z,29.50
2022-07-28T09:46:30.568Z,29.70
2022-07-28T09:49:02.498Z,30.00
2022-07-28T09:51:33.583Z,30.40
2022-07-28T09:54:14.433Z,30.50
2022-07-28T09:56:46.620Z,30.30
2022-07-28T09:59:16.259Z,30.30
2022-07-28T10:01:57.344Z,30.30
2022-07-28T10:04:33.503Z,30.20
2022-07-28T10:07:09.954Z,30.30
2022-07-28T10:09:41.575Z,30.40
2022-07-28T10:12:18.368Z,30.70
2022-07-28T10:14:48.233Z,30.70
2022-07-28T10:17:30.124Z,30.70
2022-07-28T10:20:00.226Z,30.90
2022-07-28T10:22:33.449Z,30.90
2022-07-28T10:25:35.156Z,30.80
2022-07-28T10:28:08.189Z,30.70
2022-07-28T10:30:41.312Z,30.60
2022-07-28T10:33:17.360Z,30.70
2022-07-28T10:35:55.439Z,30.80
2022-07-28T10:38:30.547Z,31.00
2022-07-28T10:41:03.548Z,31.40
2022-07-28T10:43:33.242Z,31.60
2022-07-28T10:46:07.527Z,31.80
2022-07-28T10:48:39.218Z,31.80
2022-07-28T10:51:08.485Z,31.70
2022-07-28T10:53:47.949Z,32.00
2022-07-28T10:56:38.186Z,32.60
2022-07-28T10:59:40.467Z,32.90
2022-07-28T11:02:09.495Z,32.70
2022-07-28T11:04:55.861Z,32.50
2022-07-28T11:07:26.557Z,32.60
2022-07-28T11:10:15.420Z,32.80
2022-07-28T11:12:50.305Z,33.00
2022-07-28T11:15:32.609Z,33.00
2022-07-28T11:18:06.593Z,33.00
2022-07-28T11:21:10.428Z,33.20
2022-07-28T11:23:56.670Z,33.20
2022-07-28T11:26:39.509Z,32.80
2022-07-28T11:29:23.148Z,32.50
2022-07-28T11:32:03.215Z,32.30
2022-07-28T11:35:20.427Z,32.10
2022-07-28T11:38:15.063Z,32.20
2022-07-28T11:40:45.853Z,32.50
2022-07-28T11:43:50.135Z,32.80
2022-07-28T11:46:35.072Z,33.20
2022-07-28T11:49:28.047Z,33.40
2022-07-28T11:52:21.516Z,33.60
2022-07-28T11:54:55.635Z,33.80
2022-07-28T11:57:26.601Z,34.20
2022-07-28T12:00:08.236Z,34.60
2022-07-28T12:02:38.394Z,34.40
2022-07-28T12:05:17.915Z,34.30
2022-07-28T12:07:49.581Z,34.10
2022-07-28T12:13:29.246Z,34.40
2022-07-28T12:15:58.794Z,34.50
2022-07-28T12:18:29.274Z,34.90
2022-07-28T12:21:04.592Z,35.10
2022-07-28T12:23:38.957Z,35.00
2022-07-28T12:26:40.503Z,35.00
2022-07-28T12:29:13.285Z,35.10
2022-07-28T12:31:55.463Z,35.40
2022-07-28T12:34:28.677Z,35.50
2022-07-28T12:36:59.595Z,35.30
2022-07-28T12:39:28.224Z,35.10
2022-07-28T12:42:05.530Z,35.20
2022-07-28T12:44:39.631Z,35.60
2022-07-28T12:47:12.510Z,35.80
2022-07-28T12:49:45.148Z,35.40
2022-07-28T12:52:18.747Z,34.80
2022-07-28T12:54:54.428Z,34.20
2022-07-28T12:57:49.202Z,33.90
2022-07-28T13:00:22.416Z,33.70
2022-07-28T13:02:55.319Z,33.90
2022-07-28T13:05:50.607Z,34.20
2022-07-28T13:08:19.217Z,34.30
2022-07-28T13:10:52.356Z,34.50
2022-07-28T13:13:25.578Z,34.70
2022-07-28T13:16:13.925Z,34.70
2022-07-28T13:18:44.202Z,34.70
2022-07-28T13:21:15.829Z,34.90
2022-07-28T13:23:45.095Z,34.30
2022-07-28T13:26:13.775Z,33.90
2022-07-28T13:28:42.293Z,33.30
2022-07-28T13:31:10.872Z,32.90
2022-07-28T13:33:39.402Z,32.80
2022-07-28T13:36:08.835Z,33.00
2022-07-28T13:38:38.668Z,33.30
2022-07-28T13:41:11.006Z,33.60
2022-07-28T13:43:40.294Z,33.90
2022-07-28T13:46:09.114Z,34.00
2022-07-28T13:48:57.358Z,33.80
2022-07-28T13:51:26.736Z,33.70
2022-07-28T13:53:57.283Z,33.50
2022-07-28T13:56:26.287Z,33.20
2022-07-28T13:58:54.803Z,33.00
2022-07-28T14:01:23.859Z,32.80
2022-07-28T14:03:58.329Z,32.60
2022-07-28T14:06:27.385Z,32.90
2022-07-28T14:08:58.073Z,33.00
2022-07-28T14:11:26.698Z,32.90
2022-07-28T14:13:55.629Z,32.90
2022-07-28T14:16:26.447Z,33.10
2022-07-28T14:18:55.040Z,33.40
2022-07-28T14:21:23.629Z,33.60
2022-07-28T14:23:52.192Z,33.90
2022-07-28T14:26:35.330Z,33.80
2022-07-28T14:29:04.896Z,34.40
2022-07-28T14:31:40.549Z,35.30
2022-07-28T14:34:10.205Z,35.90
2022-07-28T14:36:39.101Z,36.10
2022-07-28T14:39:12.398Z,36.10
2022-07-28T14:41:44.374Z,36.30
2022-07-28T14:44:15.327Z,36.40
2022-07-28T14:46:49.113Z,36.40
2022-07-28T14:49:17.764Z,36.60
2022-07-28T14:51:46.375Z,36.80
2022-07-28T14:54:15.470Z,36.90
2022-07-28T14:56:45.775Z,36.90
2022-07-28T14:59:14.336Z,37.30
2022-07-28T15:01:43.130Z,37.50
2022-07-28T15:04:14.031Z,37.80
2022-07-28T15:06:43.256Z,37.90
2022-07-28T15:09:11.877Z,38.00
2022-07-28T15:11:42.065Z,38.10
2022-07-28T15:14:12.900Z,38.30
2022-07-28T15:16:44.126Z,38.20
2022-07-28T15:19:12.674Z,38.30
2022-07-28T15:21:41.360Z,38.40
2022-07-28T15:24:11.303Z,38.30
2022-07-28T15:26:40.181Z,38.00
2022-07-28T15:29:12.029Z,37.70
2022-07-28T15:31:42.764Z,37.50
2022-07-28T15:34:14.146Z,37.10
2022-07-28T15:36:42.949Z,37.00
2022-07-28T15:39:14.140Z,36.80
2022-07-28T15:41:44.453Z,36.40
2022-07-28T15:44:16.392Z,36.20
2022-07-28T15:46:49.530Z,36.00
2022-07-28T15:49:18.561Z,36.00
2022-07-28T15:51:47.446Z,36.00
2022-07-28T15:54:16.274Z,35.80
2022-07-28T15:56:45.972Z,35.90
2022-07-28T15:59:15.905Z,35.60
2022-07-28T16:01:45.684Z,35.50
2022-07-28T16:04:14.902Z,35.90
2022-07-28T16:07:01.118Z,36.20
2022-07-28T16:09:45.610Z,36.40
2022-07-28T16:12:15.834Z,36.40
2022-07-28T16:14:45.855Z,36.50
2022-07-28T16:17:15.807Z,36.50
2022-07-28T16:19:49.931Z,36.60
2022-07-28T16:22:20.485Z,36.80
2022-07-28T16:24:50.992Z,36.90
2022-07-28T16:27:19.993Z,36.80
2022-07-28T16:29:50.862Z,36.60
2022-07-28T16:32:20.641Z,36.30
2022-07-28T16:34:49.346Z,35.90
2022-07-28T16:37:19.687Z,35.50
2022-07-28T16:39:49.071Z,35.40
2022-07-28T16:42:18.183Z,35.20
2022-07-28T16:44:47.443Z,34.80
2022-07-28T16:47:18.492Z,34.60
2022-07-28T16:49:47.702Z,34.30
2022-07-28T16:52:18.768Z,33.90
2022-07-28T16:54:47.776Z,33.60
2022-07-28T16:57:17.117Z,33.40
2022-07-28T16:59:48.402Z,33.20
2022-07-28T17:02:19.734Z,33.00
2022-07-28T17:04:49.385Z,32.90
2022-07-28T17:07:18.691Z,32.70
2022-07-28T17:09:47.694Z,32.60
2022-07-28T17:12:16.434Z,32.60
2022-07-28T17:14:45.128Z,32.50
2022-07-28T17:17:13.697Z,32.50
2022-07-28T17:19:46.609Z,32.40
2022-07-28T17:22:16.789Z,32.40
2022-07-28T17:24:45.241Z,32.40
2022-07-28T17:30:02.610Z,32.10
2022-07-28T17:32:31.370Z,32.10
2022-07-28T17:35:01.516Z,32.00
2022-07-28T17:37:31.446Z,31.90
2022-07-28T17:40:01.147Z,31.80
2022-07-28T17:42:34.295Z,31.70
2022-07-28T17:45:03.009Z,31.60
2022-07-28T17:47:35.965Z,31.50
2022-07-28T17:50:09.988Z,31.40
2022-07-28T17:52:38.609Z,31.30
2022-07-28T17:55:59.980Z,31.20
2022-07-28T17:58:32.403Z,31.10
2022-07-28T18:01:11.257Z,31.00
2022-07-28T18:03:59.077Z,30.90
2022-07-28T18:06:35.958Z,30.90
2022-07-28T18:09:08.596Z,30.90
2022-07-28T18:11:56.692Z,30.90
2022-07-28T18:14:28.289Z,30.80
2022-07-28T18:16:57.147Z,30.60
2022-07-28T18:19:26.041Z,30.50
2022-07-28T18:21:57.152Z,30.40
2022-07-28T18:24:26.541Z,30.40
2022-07-28T18:26:55.745Z,30.10
2022-07-28T18:29:25.016Z,30.00
2022-07-28T18:31:54.575Z,29.80
2022-07-28T18:34:24.943Z,29.80
2022-07-28T18:36:55.951Z,29.70
2022-07-28T18:39:24.794Z,29.60
2022-07-28T18:41:56.468Z,29.60
2022-07-28T18:44:25.076Z,29.50
2022-07-28T18:46:53.928Z,29.40
2022-07-28T18:49:22.828Z,29.30
2022-07-28T18:51:51.643Z,29.10
2022-07-28T18:54:27.066Z,29.00
2022-07-28T18:56:57.010Z,28.90
2022-07-28T18:59:26.454Z,28.80
2022-07-28T19:01:55.237Z,28.70
2022-07-28T19:04:24.020Z,28.60
2022-07-28T19:06:52.804Z,28.50
2022-07-28T19:09:22.928Z,28.40
2022-07-28T19:11:51.776Z,28.30
2022-07-28T19:14:20.830Z,28.10
2022-07-28T19:16:50.322Z,28.10
2022-07-28T19:19:18.983Z,28.00
2022-07-28T19:21:49.626Z,27.90
2022-07-28T19:24:19.564Z,27.90
2022-07-28T19:26:51.685Z,27.80
2022-07-28T19:29:22.859Z,27.80
2022-07-28T19:31:51.741Z,27.80
2022-07-28T19:34:20.415Z,27.70
2022-07-28T19:36:49.175Z,27.60
2022-07-28T19:39:18.595Z,27.50
2022-07-28T19:41:47.570Z,27.50
2022-07-28T19:44:18.232Z,27.40
2022-07-28T19:46:48.890Z,27.30
2022-07-28T19:49:18.127Z,27.20
2022-07-28T19:51:46.859Z,27.10
2022-07-28T19:54:16.579Z,26.90
2022-07-28T19:56:49.140Z,26.80
2022-07-28T19:59:19.836Z,26.60
2022-07-28T20:01:50.506Z,26.40
2022-07-28T20:04:19.880Z,26.30
2022-07-28T20:06:54.872Z,26.20
2022-07-28T20:09:24.444Z,25.90
2022-07-28T20:11:53.188Z,25.90
2022-07-28T20:14:23.519Z,25.70
2022-07-28T20:16:52.294Z,25.60
2022-07-28T20:19:21.235Z,25.40
2022-07-28T20:21:49.935Z,25.20
2022-07-28T20:24:20.529Z,25.10
2022-07-28T20:26:49.220Z,25.10
2022-07-28T20:29:18.337Z,24.90
2022-07-28T20:31:49.690Z,24.80
2022-07-28T20:34:18.899Z,24.50
2022-07-28T20:36:48.089Z,24.70
2022-07-28T20:39:43.371Z,24.70
2022-07-28T20:42:07.942Z,24.70
2022-07-28T20:44:37.614Z,24.70
2022-07-28T20:47:08.630Z,24.70
2022-07-28T20:49:37.312Z,24.70
2022-07-28T20:52:06.961Z,24.70
2022-07-28T20:54:35.649Z,24.50
2022-07-28T20:57:04.979Z,24.40
2022-07-28T20:59:34.015Z,24.40
2022-07-28T21:02:02.674Z,24.40
2022-07-28T21:04:34.515Z,24.40
2022-07-28T21:07:04.345Z,24.30
2022-07-28T21:09:33.084Z,24.50
2022-07-28T21:12:01.723Z,24.50
2022-07-28T21:14:32.309Z,24.60
2022-07-28T21:17:03.319Z,24.60
2022-07-28T21:19:33.483Z,24.70
2022-07-28T21:22:01.943Z,24.60
2022-07-28T21:24:30.769Z,24.70
2022-07-28T21:26:59.320Z,24.70
2022-07-28T21:29:26.773Z,24.70
2022-07-28T21:32:02.089Z,24.30
2022-07-28T21:34:36.061Z,24.10
2022-07-28T21:37:06.672Z,23.90
2022-07-28T21:39:36.702Z,23.50
2022-07-28T21:42:08.603Z,22.80
2022-07-28T21:44:37.820Z,22.10
2022-07-28T21:47:06.727Z,21.90
2022-07-28T21:49:36.641Z,21.60
2022-07-28T21:52:05.770Z,21.30
2022-07-28T21:54:34.318Z,21.30
2022-07-28T21:57:02.809Z,21.30
2022-07-28T21:59:43.937Z,21.20
2022-07-28T22:02:16.494Z,21.10
2022-07-28T22:04:46.462Z,20.80
2022-07-28T22:07:15.147Z,20.60
2022-07-28T22:09:43.654Z,20.40
2022-07-28T22:12:13.056Z,20.20
2022-07-28T22:14:41.528Z,19.90
2022-07-28T22:17:10.139Z,19.90
2022-07-28T22:19:39.233Z,19.90
2022-07-28T22:22:09.738Z,19.70
2022-07-28T22:24:38.852Z,19.70
2022-07-28T22:27:07.579Z,19.60
2022-07-28T22:29:44.111Z,19.50
2022-07-28T22:32:28.722Z,19.50
2022-07-28T22:35:00.062Z,19.60
2022-07-28T22:37:31.370Z,19.60
2022-07-28T22:40:01.668Z,19.70
2022-07-28T22:42:30.503Z,19.80
2022-07-28T22:44:59.049Z,19.80
2022-07-28T22:47:27.781Z,19.80
2022-07-28T22:49:57.229Z,19.80
2022-07-28T22:52:27.551Z,19.80
2022-07-28T22:54:57.990Z,19.80
2022-07-28T22:57:34.813Z,19.90
2022-07-28T23:00:03.883Z,20.00
2022-07-28T23:02:34.193Z,20.10
2022-07-28T23:05:02.964Z,20.10
2022-07-28T23:07:52.880Z,20.10
2022-07-28T23:10:21.869Z,20.00
2022-07-28T23:12:51.339Z,20.00
2022-07-28T23:15:20.330Z,20.00
2022-07-28T23:17:48.948Z,19.90
2022-07-28T23:20:17.764Z,19.80
2022-07-28T23:22:46.832Z,19.50
2022-07-28T23:25:16.151Z,19.30
2022-07-28T23:27:46.300Z,19.00
2022-07-28T23:30:15.500Z,18.80
2022-07-28T23:32:44.130Z,18.80
2022-07-28T23:35:13.182Z,18.90
2022-07-28T23:37:41.723Z,19.00
2022-07-28T23:40:12.114Z,19.10
2022-07-28T23:42:40.875Z,19.20
2022-07-28T23:45:12.665Z,19.40
2022-07-28T23:47:41.382Z,19.50
2022-07-28T23:50:10.941Z,19.60
2022-07-28T23:52:39.537Z,19.70
2022-07-28T23:55:09.528Z,19.70
2022-07-28T23:57:38.238Z,19.50
